Time;durP1;ratioP1;P1;durP2;ratioP2;P2;SDS_P1;SDS_P2;PMS_P1;PMS_P2;Temp;Humidity;BMP_temperature;BMP_pressure;BME280_temperature;BME280_humidity;BME280_pressure;Samples;Min_cycle;Max_cycle;Signal;HPM_P1;HPM_P2
2021/12/11 00:00:44;;;;;;;2.50;1.63;;;;;;;-143.84;88.86;44468.34;5070440;28;20521;-76
2021/12/11 00:03:15;;;;;;;11.23;2.20;;;;;;;-143.84;88.41;44561.63;5070619;28;20445;-76
2021/12/11 00:05:45;;;;;;;4.43;2.20;;;;;;;-143.84;88.22;44626.38;5070122;28;20452;-76
2021/12/11 00:08:19;;;;;;;2.80;1.70;;;;;;;-143.84;88.42;44613.03;5069963;28;20448;-76
2021/12/11 00:10:52;;;;;;;4.20;1.80;;;;;;;-143.84;88.31;44603.53;5070365;28;20448;-76
2021/12/11 00:13:24;;;;;;;6.47;2.83;;;;;;;-143.84;88.27;44603.53;5070002;28;20927;-76
2021/12/11 00:15:53;;;;;;;7.70;2.53;;;;;;;-143.84;88.41;44582.59;5062366;28;20906;-76
2021/12/11 00:18:24;;;;;;;4.93;1.80;;;;;;;-143.84;88.42;44540.69;5050160;28;20441;-76
2021/12/11 00:20:55;;;;;;;2.87;1.83;;;;;;;-143.84;88.49;44565.44;5050096;28;20449;-76
2021/12/11 00:23:30;;;;;;;4.20;2.30;;;;;;;-143.84;88.65;44557.84;5050321;28;20859;-76
2021/12/11 00:25:59;;;;;;;3.40;1.80;;;;;;;-143.84;88.59;44569.25;5049820;28;21117;-76
2021/12/11 00:28:26;;;;;;;3.40;2.03;;;;;;;-143.84;88.84;44504.53;5049647;28;20503;-76
2021/12/11 00:30:54;;;;;;;2.90;2.20;;;;;;;-143.84;88.22;44576.88;5049707;28;20437;-76
2021/12/11 00:33:24;;;;;;;3.30;2.03;;;;;;;-143.84;87.85;44637.78;5052323;28;20442;-76
2021/12/11 00:35:53;;;;;;;4.10;1.73;;;;;;;-143.84;88.12;44613.03;5053344;28;20883;-76
2021/12/11 00:38:26;;;;;;;7.03;1.80;;;;;;;-143.84;87.88;44675.88;5053224;28;20496;-76
2021/12/11 00:40:55;;;;;;;2.40;1.57;;;;;;;-143.84;87.53;44744.41;5053244;28;20449;-76
2021/12/11 00:43:28;;;;;;;7.57;1.53;;;;;;;-143.84;87.02;44809.16;5053365;28;20580;-76
2021/12/11 00:45:58;;;;;;;1.90;1.50;;;;;;;-143.84;86.48;44864.38;5045046;28;20448;-76
2021/12/11 00:48:28;;;;;;;3.10;2.20;;;;;;;-143.84;86.64;44871.97;5053093;28;20451;-76
2021/12/11 00:50:59;;;;;;;4.27;1.70;;;;;;;-143.84;86.72;44862.47;5052740;28;21191;-76
2021/12/11 00:53:28;;;;;;;6.03;2.10;;;;;;;-143.84;86.69;44906.25;5053152;28;20522;-76
2021/12/11 00:55:58;;;;;;;2.20;1.90;;;;;;;-143.84;86.55;44881.50;5053141;28;20516;-76
2021/12/11 00:58:29;;;;;;;4.33;1.70;;;;;;;-143.84;86.28;44885.31;5053186;28;20507;-76
2021/12/11 01:00:59;;;;;;;11.47;2.33;;;;;;;-143.84;86.37;44913.88;5053155;28;21007;-76
2021/12/11 01:03:31;;;;;;;2.63;1.77;;;;;;;-143.84;86.51;44879.59;5052815;28;21137;-76
2021/12/11 01:06:01;;;;;;;4.10;2.03;;;;;;;-143.84;86.28;44911.97;5052711;28;20443;-76
2021/12/11 01:08:32;;;;;;;7.77;2.53;;;;;;;-143.84;86.57;44908.16;5052645;28;20885;-76
2021/12/11 01:11:07;;;;;;;8.50;2.17;;;;;;;-143.84;86.42;44902.44;5053385;28;21060;-76
2021/12/11 01:13:41;;;;;;;5.93;1.80;;;;;;;-143.84;86.21;44934.81;5052920;28;20525;-76
2021/12/11 01:16:13;;;;;;;3.13;1.90;;;;;;;-143.84;86.42;44921.50;5052290;28;20520;-77
2021/12/11 01:18:43;;;;;;;2.40;1.50;;;;;;;-143.84;86.20;44934.81;5052609;28;20442;-76
2021/12/11 01:21:27;;;;;;;5.60;1.57;;;;;;;-143.84;86.48;44883.41;5053086;28;20886;-77
2021/12/11 01:24:09;;;;;;;5.20;2.40;;;;;;;-143.84;86.60;44891.03;5052443;28;20490;-76
2021/12/11 01:26:39;;;;;;;9.17;2.87;;;;;;;-143.84;86.22;44932.91;5052793;28;21008;-76
2021/12/11 01:29:10;;;;;;;7.50;2.60;;;;;;;-143.84;86.51;44900.53;5052706;28;20868;-76
2021/12/11 01:31:38;;;;;;;2.80;2.10;;;;;;;-143.84;86.72;44881.50;5052536;28;20877;-76
2021/12/11 01:34:06;;;;;;;5.43;2.50;;;;;;;-143.84;86.93;44862.47;5052344;28;20942;-76
2021/12/11 01:36:35;;;;;;;4.80;2.50;;;;;;;-143.84;87.18;44830.09;5052516;28;20477;-76
2021/12/11 01:39:10;;;;;;;4.80;2.27;;;;;;;-143.84;87.46;44814.88;5052414;28;20484;-76
2021/12/11 01:41:38;;;;;;;4.33;2.60;;;;;;;-143.84;87.25;44805.34;5052741;28;20443;-76
2021/12/11 01:44:12;;;;;;;3.23;2.00;;;;;;;-143.84;87.02;44839.63;5051682;28;20452;-76
2021/12/11 01:46:40;;;;;;;3.67;2.30;;;;;;;-143.84;87.05;44826.28;5051782;28;20449;-76
2021/12/11 01:49:12;;;;;;;2.60;1.73;;;;;;;-143.84;87.21;44847.22;5051951;28;20469;-76
2021/12/11 01:51:44;;;;;;;2.03;1.80;;;;;;;-143.84;87.36;44790.13;5052284;28;20479;-76
2021/12/11 01:54:17;;;;;;;6.60;2.20;;;;;;;-143.84;87.71;44780.59;5051917;28;20808;-76
2021/12/11 01:56:49;;;;;;;11.97;2.30;;;;;;;-143.84;87.42;44782.50;5051744;28;20517;-76
2021/12/11 01:59:21;;;;;;;6.17;2.60;;;;;;;-143.84;87.33;44750.13;5052034;28;20441;-76
2021/12/11 02:01:53;;;;;;;5.80;2.80;;;;;;;-143.84;87.18;44797.72;5052024;28;20446;-76
2021/12/11 02:04:23;;;;;;;6.27;2.50;;;;;;;-143.84;87.35;44778.69;5051565;28;20452;-76
2021/12/11 02:06:54;;;;;;;3.87;2.10;;;;;;;-143.84;87.36;44776.78;5051561;28;20887;-76
2021/12/11 02:09:25;;;;;;;8.47;2.20;;;;;;;-143.84;87.11;44774.88;5051939;28;20866;-76
2021/12/11 02:12:02;;;;;;;5.57;1.60;;;;;;;-143.84;86.65;44860.56;5051618;28;20985;-76
2021/12/11 02:14:37;;;;;;;6.20;1.47;;;;;;;-143.84;86.32;44911.97;5051563;28;20571;-76
2021/12/11 02:17:05;;;;;;;3.70;2.10;;;;;;;-143.84;86.28;44953.88;5051197;28;20497;-76
2021/12/11 02:19:37;;;;;;;8.73;1.73;;;;;;;-143.84;85.60;44978.63;5051314;28;20441;-76
2021/12/11 02:22:13;;;;;;;1.40;1.30;;;;;;;-143.84;85.31;44999.56;5051581;28;20560;-76
2021/12/11 02:24:45;;;;;;;3.17;1.70;;;;;;;-143.84;84.64;45018.59;5051861;28;20445;-76
2021/12/11 02:27:18;;;;;;;3.40;1.97;;;;;;;-143.84;84.58;45049.06;5051364;28;20982;-76
2021/12/11 02:29:49;;;;;;;2.60;1.83;;;;;;;-143.84;84.54;45035.75;5051373;28;20449;-76
2021/12/11 02:32:27;;;;;;;2.33;1.63;;;;;;;-143.84;84.17;45052.88;5051564;28;20882;-76
2021/12/11 02:35:00;;;;;;;1.83;1.40;;;;;;;-143.84;84.47;45049.06;5051049;28;20460;-76
2021/12/11 02:37:38;;;;;;;4.50;2.00;;;;;;;-143.84;84.13;45064.31;5051421;28;20477;-76
2021/12/11 02:40:17;;;;;;;6.33;1.80;;;;;;;-143.84;83.66;45066.22;5051421;28;20511;-76
2021/12/11 02:42:51;;;;;;;3.33;2.00;;;;;;;-143.84;83.51;45041.44;5051626;28;20453;-76
2021/12/11 02:45:25;;;;;;;4.50;1.33;;;;;;;-143.84;82.88;45096.66;5051183;28;20453;-76
2021/12/11 02:47:58;;;;;;;2.27;1.70;;;;;;;-143.84;83.05;45071.91;5051136;28;20430;-76
2021/12/11 02:50:31;;;;;;;4.70;1.73;;;;;;;-143.84;82.99;45098.56;5050780;28;20534;-76
2021/12/11 02:53:04;;;;;;;5.23;1.93;;;;;;;-143.84;82.72;45079.53;5051409;28;20458;-77
2021/12/11 02:55:35;;;;;;;7.37;1.70;;;;;;;-143.84;83.07;45087.16;5050629;28;20448;-76
2021/12/11 02:58:06;;;;;;;4.33;2.27;;;;;;;-143.84;82.67;45096.66;5050934;28;20534;-76
2021/12/11 03:00:38;;;;;;;5.90;1.83;;;;;;;-143.84;82.71;45111.91;5050803;28;20456;-76
2021/12/11 03:03:10;;;;;;;7.17;4.30;;;;;;;-143.84;82.91;45102.38;5051239;28;20534;-76
2021/12/11 03:05:44;;;;;;;9.60;2.77;;;;;;;-143.84;82.62;45098.56;5051249;28;20862;-77
2021/12/11 03:08:16;;;;;;;2.40;1.37;;;;;;;-143.84;82.21;45129.03;5050869;28;20512;-76
2021/12/11 03:10:47;;;;;;;2.10;1.93;;;;;;;-143.84;82.33;45140.47;5050928;28;20448;-77
2021/12/11 03:13:15;;;;;;;1.93;1.73;;;;;;;-143.84;82.53;45100.47;5050939;28;20445;-77
2021/12/11 03:15:42;;;;;;;3.77;2.20;;;;;;;-143.84;82.91;45106.19;5050312;28;20495;-76
2021/12/11 03:18:11;;;;;;;5.10;1.90;;;;;;;-143.84;82.78;45090.97;5050430;28;20869;-76
2021/12/11 03:20:40;;;;;;;3.67;1.50;;;;;;;-143.84;82.91;45100.47;5050735;28;20827;-76
2021/12/11 03:23:08;;;;;;;1.80;1.13;;;;;;;-143.84;82.64;45130.94;5051042;28;20440;-76
2021/12/11 03:25:39;;;;;;;2.60;1.83;;;;;;;-143.84;82.75;45094.78;5050369;28;20530;-77
2021/12/11 03:28:09;;;;;;;2.10;2.00;;;;;;;-143.84;82.87;45083.34;5050307;28;20454;-77
2021/12/11 03:30:41;;;;;;;5.90;1.90;;;;;;;-143.84;82.75;45108.09;5050832;28;20441;-76
2021/12/11 03:33:11;;;;;;;7.30;1.90;;;;;;;-143.84;82.84;45117.63;5050715;28;20440;-76
2021/12/11 03:35:39;;;;;;;2.20;1.73;;;;;;;-143.84;83.01;45090.97;5050523;28;20503;-76
2021/12/11 03:38:06;;;;;;;5.60;1.87;;;;;;;-143.84;82.88;45083.34;5050287;28;20475;-76
2021/12/11 03:40:34;;;;;;;12.23;1.77;;;;;;;-143.84;83.21;45098.56;5050358;28;20446;-76
2021/12/11 03:43:07;;;;;;;2.00;1.83;;;;;;;-143.84;82.89;45104.28;5050581;28;20488;-76
2021/12/11 03:45:38;;;;;;;3.77;2.33;;;;;;;-143.84;82.81;45070.00;5050568;28;20869;-76
2021/12/11 03:48:10;;;;;;;4.53;2.63;;;;;;;-143.84;82.60;45096.66;5050576;28;20453;-77
2021/12/11 03:50:38;;;;;;;3.83;3.07;;;;;;;-143.84;82.64;45117.63;5050205;28;20921;-76
2021/12/11 03:53:06;;;;;;;3.50;2.30;;;;;;;-143.84;82.45;45102.38;5048941;28;20892;-76
2021/12/11 03:55:39;;;;;;;6.00;2.07;;;;;;;-143.84;82.27;45110.00;5047659;28;20457;-76
2021/12/11 03:58:09;;;;;;;5.80;1.90;;;;;;;-143.84;82.61;45085.25;5048923;28;20480;-76
2021/12/11 04:00:39;;;;;;;4.10;1.57;;;;;;;-143.84;82.67;45098.56;5049956;28;20449;-76
2021/12/11 04:03:08;;;;;;;8.10;1.93;;;;;;;-143.84;82.54;45127.13;5050334;28;20445;-76
2021/12/11 04:05:40;;;;;;;5.70;2.60;;;;;;;-143.84;82.52;45119.53;5050297;28;20453;-76
2021/12/11 04:08:14;;;;;;;3.80;2.83;;;;;;;-143.84;82.58;45121.44;5052949;28;20433;-76
2021/12/11 04:10:41;;;;;;;10.93;3.60;;;;;;;-143.84;82.61;45106.19;5054044;28;20448;-76
2021/12/11 04:13:13;;;;;;;5.80;3.10;;;;;;;-143.84;82.74;45123.34;5054538;28;20453;-76
2021/12/11 04:15:42;;;;;;;6.67;2.90;;;;;;;-143.84;82.60;45113.81;5053640;28;20500;-76
2021/12/11 04:18:10;;;;;;;5.03;3.60;;;;;;;-143.84;82.13;45110.00;5053955;28;20469;-76
2021/12/11 04:20:44;;;;;;;15.57;5.30;;;;;;;-143.84;82.27;45110.00;5053820;28;20842;-76
2021/12/11 04:23:14;;;;;;;4.50;3.13;;;;;;;-143.84;82.13;45121.44;5054210;28;20445;-76
2021/12/11 04:25:44;;;;;;;5.10;3.60;;;;;;;-143.84;82.17;45111.91;5035971;28;20453;-76
2021/12/11 04:28:16;;;;;;;8.77;3.63;;;;;;;-143.84;81.64;45127.13;5053317;28;20495;-76
2021/12/11 04:30:44;;;;;;;7.83;4.33;;;;;;;-143.84;81.74;45111.91;5053292;28;20506;-76
2021/12/11 04:33:11;;;;;;;13.70;5.13;;;;;;;-143.84;81.95;45100.47;5054084;28;20467;-76
2021/12/11 04:35:42;;;;;;;8.23;6.50;;;;;;;-143.84;81.85;45125.22;5053242;28;20436;-76
2021/12/11 04:38:11;;;;;;;9.93;5.23;;;;;;;-143.84;81.56;45136.66;5053391;28;20949;-76
2021/12/11 04:40:42;;;;;;;6.23;4.93;;;;;;;-143.84;82.07;45094.78;5053149;28;20453;-76
2021/12/11 04:43:15;;;;;;;6.50;4.50;;;;;;;-143.84;82.51;45113.81;5053652;28;20481;-76
2021/12/11 04:45:47;;;;;;;9.30;5.10;;;;;;;-143.84;82.77;45110.00;5053429;28;20453;-77
2021/12/11 04:48:24;;;;;;;10.80;3.93;;;;;;;-143.84;83.72;45068.13;5053292;28;20445;-76
2021/12/11 04:50:59;;;;;;;4.93;3.13;;;;;;;-143.84;84.41;45068.13;5053234;28;20461;-76
2021/12/11 04:59:20;;;;;;;9.47;4.90;;;;;;;-143.84;86.03;44961.47;5052270;28;21001;-76
2021/12/11 05:01:58;;;;;;;14.50;6.10;;;;;;;-143.84;86.53;44953.88;5052509;28;20974;-76
2021/12/11 05:04:45;;;;;;;7.97;3.93;;;;;;;-143.84;86.85;44929.09;5053288;28;20454;-76
2021/12/11 05:07:25;;;;;;;8.63;5.10;;;;;;;-143.84;86.72;44851.03;5052842;28;20554;-76
2021/12/11 05:09:58;;;;;;;11.47;3.70;;;;;;;-143.84;87.16;44830.09;5052611;28;20522;-76
2021/12/11 05:12:36;;;;;;;7.20;3.10;;;;;;;-143.84;87.20;44824.38;5052404;28;20829;-76
2021/12/11 05:15:10;;;;;;;4.43;2.90;;;;;;;-143.84;87.26;44822.47;5052250;28;20440;-76
2021/12/11 05:17:38;;;;;;;5.40;3.60;;;;;;;-143.84;87.68;44752.03;5047776;28;20492;-78
2021/12/11 05:20:07;;;;;;;8.80;4.73;;;;;;;-143.84;89.30;44375.06;5052730;28;20456;-76
2021/12/11 05:22:35;;;;;;;5.00;4.13;;;;;;;-143.84;93.45;43830.63;5052892;28;21048;-76
2021/12/11 05:25:02;;;;;;;8.50;5.00;;;;;;;-143.84;91.99;43874.41;5053752;28;20544;-78
2021/12/11 05:27:29;;;;;;;14.13;6.00;;;;;;;-143.84;91.30;43922.00;5052346;28;20448;-77
2021/12/11 05:29:56;;;;;;;6.80;3.70;;;;;;;-143.84;91.23;43889.63;5052736;28;20449;-76
2021/12/11 05:32:27;;;;;;;9.80;3.30;;;;;;;-143.84;91.38;43870.59;5052604;28;20483;-76
2021/12/11 05:34:55;;;;;;;11.47;4.77;;;;;;;-143.84;89.43;44114.25;5052746;28;20437;-76
2021/12/11 05:37:22;;;;;;;15.30;5.43;;;;;;;-143.84;89.30;44186.59;5051975;28;21271;-76
2021/12/11 05:39:50;;;;;;;12.07;5.60;;;;;;;-143.84;89.41;44177.06;5052498;28;20502;-76
2021/12/11 05:42:17;;;;;;;8.67;4.57;;;;;;;-143.84;89.01;44264.66;5051448;28;20977;-74
2021/12/11 05:44:45;;;;;;;14.50;4.60;;;;;;;-143.84;88.82;44308.44;5051807;28;20955;-75
2021/12/11 05:47:12;;;;;;;12.33;4.23;;;;;;;-143.84;89.01;44287.50;5052110;28;20492;-75
2021/12/11 05:49:44;;;;;;;8.67;4.10;;;;;;;-143.84;88.89;44342.69;5045695;28;20450;-74
2021/12/11 05:52:12;;;;;;;8.03;4.07;;;;;;;-143.84;88.79;44306.53;5031385;28;20801;-74
2021/12/11 05:54:41;;;;;;;9.03;5.03;;;;;;;-143.84;88.79;44363.63;5032175;28;20569;-76
2021/12/11 05:57:12;;;;;;;15.60;4.87;;;;;;;-143.84;88.72;44375.06;5031007;28;20442;-75
2021/12/11 05:59:41;;;;;;;11.23;4.53;;;;;;;-143.84;88.70;44373.16;5031518;28;21181;-74
2021/12/11 06:02:14;;;;;;;8.80;4.20;;;;;;;-143.84;88.68;44397.91;5030418;28;20454;-73
2021/12/11 06:04:44;;;;;;;11.80;4.20;;;;;;;-143.84;88.59;44413.13;5030643;28;20458;-73
2021/12/11 06:07:14;;;;;;;20.17;7.13;;;;;;;-143.84;88.54;44411.22;5030932;28;21011;-73
2021/12/11 06:09:44;;;;;;;8.10;4.50;;;;;;;-143.84;88.46;44443.59;5030647;28;20438;-75
2021/12/11 06:12:13;;;;;;;6.20;4.33;;;;;;;-143.84;88.50;44441.69;5030866;28;20469;-75
2021/12/11 06:14:42;;;;;;;3.87;2.97;;;;;;;-143.84;88.59;44367.44;5031015;28;20435;-75
2021/12/11 06:17:12;;;;;;;6.40;5.33;;;;;;;-143.84;88.67;44407.44;5047954;28;20480;-73
2021/12/11 06:19:42;;;;;;;11.77;5.10;;;;;;;-143.84;88.53;44396.00;5050376;28;20434;-73
2021/12/11 06:22:11;;;;;;;11.40;4.93;;;;;;;-143.84;88.57;44354.13;5050119;28;20519;-73
2021/12/11 06:24:38;;;;;;;25.87;8.10;;;;;;;-143.84;88.48;44388.38;5049466;28;20507;-73
2021/12/11 06:27:06;;;;;;;12.73;6.60;;;;;;;-143.84;88.64;44352.22;5049271;28;20448;-73
2021/12/11 06:29:34;;;;;;;6.80;5.50;;;;;;;-143.84;88.47;44295.09;5031087;28;20448;-73
2021/12/11 06:32:01;;;;;;;8.77;4.80;;;;;;;-143.84;88.96;44277.97;5049680;28;20425;-73
2021/12/11 06:34:28;;;;;;;7.80;4.27;;;;;;;-143.84;89.28;44177.06;5049292;28;20443;-73
2021/12/11 06:36:56;;;;;;;7.83;4.37;;;;;;;-143.84;89.72;44083.78;5048172;28;20446;-73
2021/12/11 06:39:25;;;;;;;9.83;3.90;;;;;;;-143.84;90.15;44045.72;5047779;28;20486;-73
2021/12/11 06:41:56;;;;;;;9.10;4.63;;;;;;;-143.84;90.47;43981.00;5047674;28;20449;-73
2021/12/11 06:44:28;;;;;;;10.00;5.13;;;;;;;-143.84;90.74;43897.25;5048423;28;20423;-73
2021/12/11 06:46:57;;;;;;;21.20;7.47;;;;;;;-143.84;90.69;43946.75;5048427;28;20485;-73
2021/12/11 06:49:25;;;;;;;18.00;7.53;;;;;;;-143.84;90.73;43910.56;5048701;28;20497;-73
2021/12/11 06:51:53;;;;;;;13.60;6.03;;;;;;;-143.84;90.46;43971.47;5049142;28;21070;-73
2021/12/11 06:54:22;;;;;;;16.00;6.20;;;;;;;-143.84;90.51;43895.34;5049837;28;20435;-73
2021/12/11 06:56:51;;;;;;;20.17;6.53;;;;;;;-143.84;90.41;43958.16;5049394;28;20583;-73
2021/12/11 06:59:19;;;;;;;17.70;6.90;;;;;;;-143.84;90.54;43952.44;5049083;28;21079;-73
2021/12/11 07:01:46;;;;;;;14.60;6.27;;;;;;;-143.84;90.53;43944.84;5049526;28;20446;-73
2021/12/11 07:04:14;;;;;;;16.03;4.53;;;;;;;-143.84;90.24;43979.09;5049028;28;20435;-73
2021/12/11 07:06:46;;;;;;;9.83;4.30;;;;;;;-143.84;89.87;43990.53;5048937;28;20518;-73
2021/12/11 07:09:15;;;;;;;11.47;5.70;;;;;;;-143.84;89.72;43988.63;5048838;28;20995;-73
2021/12/11 07:11:44;;;;;;;10.57;3.60;;;;;;;-143.84;89.43;44049.53;5048657;28;20450;-73
2021/12/11 07:14:14;;;;;;;12.53;3.83;;;;;;;-143.84;88.93;44150.41;5048833;28;20533;-73
2021/12/11 07:16:42;;;;;;;12.10;3.70;;;;;;;-143.84;88.53;44260.84;5048931;28;20957;-73
2021/12/11 07:19:10;;;;;;;16.70;4.70;;;;;;;-143.84;88.31;44268.44;5049034;28;20489;-73
2021/12/11 07:21:39;;;;;;;15.37;8.03;;;;;;;-143.84;88.63;44243.69;5048703;28;20436;-73
2021/12/11 07:24:08;;;;;;;10.20;4.63;;;;;;;-143.84;88.11;44291.28;5048701;28;20452;-73
2021/12/11 07:26:35;;;;;;;11.50;5.63;;;;;;;-143.84;87.87;44475.97;5048492;28;20440;-73
2021/12/11 07:29:08;;;;;;;14.30;5.57;;;;;;;-143.84;87.48;44544.50;5048721;28;20456;-73
2021/12/11 07:31:37;;;;;;;15.47;6.43;;;;;;;-143.84;87.76;44500.72;5048672;28;21229;-73
2021/12/11 07:34:05;;;;;;;15.50;7.77;;;;;;;-143.84;88.23;44348.41;5048413;28;20452;-74
2021/12/11 07:36:32;;;;;;;16.60;5.10;;;;;;;-143.84;86.87;44599.72;5048940;28;20440;-73
2021/12/11 07:39:05;;;;;;;11.10;5.40;;;;;;;-143.84;86.42;44710.16;5048424;28;20492;-73
2021/12/11 07:41:32;;;;;;;8.13;3.70;;;;;;;-143.84;85.46;44814.88;5051970;28;20879;-73
2021/12/11 07:44:00;;;;;;;16.03;4.50;;;;;;;-143.84;84.35;44915.78;5054989;28;20441;-73
2021/12/11 07:46:29;;;;;;;12.23;4.93;;;;;;;-143.84;84.64;44934.81;5055352;28;20437;-73
2021/12/11 07:48:59;;;;;;;16.87;4.57;;;;;;;-143.84;84.09;44957.66;5054906;28;21163;-73
2021/12/11 07:51:29;;;;;;;7.60;3.57;;;;;;;-143.84;82.98;44993.84;5055096;28;20452;-73
2021/12/11 07:53:57;;;;;;;19.97;3.97;;;;;;;-143.84;82.89;45014.78;5054597;28;20448;-73
2021/12/11 07:56:24;;;;;;;9.00;4.47;;;;;;;-143.84;83.21;44965.28;5054991;28;20919;-73
2021/12/11 07:58:54;;;;;;;16.73;5.30;;;;;;;-143.84;82.74;44965.28;5055330;28;20482;-73
2021/12/11 08:01:22;;;;;;;16.63;4.47;;;;;;;-143.84;83.02;44988.13;5054703;28;20453;-73
2021/12/11 08:03:49;;;;;;;8.07;3.20;;;;;;;-143.84;83.04;44982.41;5054463;28;20449;-73
2021/12/11 08:06:18;;;;;;;8.17;3.20;;;;;;;-143.84;83.31;44995.75;5054318;28;20438;-73
2021/12/11 08:08:46;;;;;;;28.00;7.40;;;;;;;-143.84;83.89;44910.06;5054375;28;20994;-73
2021/12/11 08:11:17;;;;;;;37.60;16.77;;;;;;;-143.84;84.00;44942.44;5054669;28;20445;-74
2021/12/11 08:13:46;;;;;;;18.00;8.20;;;;;;;-143.84;83.86;44923.41;5055185;28;20534;-74
2021/12/11 08:16:14;;;;;;;8.33;2.73;;;;;;;-143.84;83.95;44934.81;5054682;28;20931;-73
2021/12/11 08:18:42;;;;;;;32.47;16.10;;;;;;;-143.84;84.22;44862.47;5057869;28;20472;-73
2021/12/11 08:21:09;;;;;;;16.03;6.13;;;;;;;-143.84;84.64;44841.53;5075451;28;20451;-73
2021/12/11 08:23:43;;;;;;;13.23;6.03;;;;;;;-143.84;82.92;44932.91;5074663;28;20443;-73
2021/12/11 08:26:11;;;;;;;15.00;5.97;;;;;;;-143.84;81.97;45005.28;5075001;28;20474;-73
2021/12/11 08:28:40;;;;;;;17.23;3.03;;;;;;;-143.84;81.50;45031.94;5074954;28;20452;-73
2021/12/11 08:31:07;;;;;;;18.67;7.10;;;;;;;-143.84;81.95;45009.09;5075025;28;20462;-73
2021/12/11 08:33:35;;;;;;;23.80;7.57;;;;;;;-143.84;81.66;45010.97;5074533;28;20432;-73
2021/12/11 08:36:02;;;;;;;19.13;5.80;;;;;;;-143.84;82.04;45020.50;5074685;28;20436;-73
2021/12/11 08:38:30;;;;;;;25.37;7.60;;;;;;;-143.84;83.06;44953.88;5074426;28;20838;-73
2021/12/11 08:41:01;;;;;;;14.13;5.80;;;;;;;-143.84;82.55;44971.00;5074664;28;20428;-73
2021/12/11 08:43:29;;;;;;;7.00;4.33;;;;;;;-143.84;82.46;44997.66;5074986;28;20647;-73
2021/12/11 08:46:08;;;;;;;13.53;4.30;;;;;;;-143.84;82.92;44965.28;5074641;28;20432;-73
2021/12/11 08:48:37;;;;;;;21.50;5.77;;;;;;;-143.84;82.52;44940.53;5074697;28;20529;-73
2021/12/11 08:51:08;;;;;;;15.93;5.93;;;;;;;-143.84;81.79;44984.31;5074564;28;20426;-73
2021/12/11 08:53:37;;;;;;;17.70;4.40;;;;;;;-143.84;81.50;45016.69;5071190;28;20447;-73
2021/12/11 08:56:10;;;;;;;13.57;5.40;;;;;;;-143.84;79.85;45039.53;5071296;28;20439;-73
2021/12/11 08:58:38;;;;;;;12.47;3.87;;;;;;;-143.84;78.92;45066.22;5071774;28;20489;-74
2021/12/11 09:01:11;;;;;;;11.20;2.70;;;;;;;-143.84;76.96;45098.56;5071349;28;20830;-74
2021/12/11 09:03:41;;;;;;;10.27;3.07;;;;;;;-143.84;77.10;45117.63;5071464;28;20426;-74
2021/12/11 09:06:12;;;;;;;14.17;3.60;;;;;;;-143.84;77.50;45075.72;5071209;28;20437;-73
2021/12/11 09:08:46;;;;;;;13.03;2.77;;;;;;;-143.84;77.20;45085.25;5070939;28;20459;-73
2021/12/11 09:11:19;;;;;;;18.90;3.73;;;;;;;-143.84;77.39;45054.78;5071393;28;21362;-73
2021/12/11 09:13:53;;;;;;;15.10;4.40;;;;;;;-143.84;77.23;45087.16;5071185;28;20505;-74
2021/12/11 09:16:24;;;;;;;7.53;3.03;;;;;;;-143.84;78.09;45049.06;5059614;28;20546;-75
2021/12/11 09:18:54;;;;;;;16.10;4.47;;;;;;;-143.84;78.32;45090.97;5051180;28;20534;-72
2021/12/11 09:21:25;;;;;;;21.73;4.13;;;;;;;-143.84;78.80;45049.06;5051051;28;20443;-72
2021/12/11 09:24:04;;;;;;;14.70;3.70;;;;;;;-143.84;79.74;45075.72;5050306;28;20444;-72
2021/12/11 09:26:37;;;;;;;16.83;4.23;;;;;;;-143.84;81.04;45016.69;5050406;28;20444;-72
2021/12/11 09:29:11;;;;;;;14.40;3.80;;;;;;;-143.84;81.50;44986.22;5051794;28;20498;-76
2021/12/11 09:31:51;;;;;;;10.97;3.70;;;;;;;-143.84;80.36;45028.13;5050168;28;20482;-76
2021/12/11 09:45:11;;;;;;;25.63;4.60;;;;;;;-143.84;80.81;45041.44;5053608;28;20528;-75
2021/12/11 09:47:50;;;;;;;18.63;4.27;;;;;;;-143.84;81.70;44995.75;5048881;28;20450;-75
2021/12/11 09:50:25;;;;;;;13.40;5.10;;;;;;;-143.84;83.21;44984.31;5049047;28;20453;-75
2021/12/11 09:52:52;;;;;;;32.33;13.53;;;;;;;-143.84;83.90;44883.41;5048856;28;20438;-75
2021/12/11 09:55:24;;;;;;;20.77;5.90;;;;;;;-143.84;84.13;44856.75;5049377;28;20855;-76
2021/12/11 09:57:54;;;;;;;17.03;8.00;;;;;;;-143.84;85.07;44824.38;5038673;28;20522;-76
2021/12/11 10:00:27;;;;;;;22.93;8.47;;;;;;;-143.84;86.31;44622.56;5029233;28;21258;-77
2021/12/11 10:02:56;;;;;;;15.90;6.33;;;;;;;-143.84;86.04;44634.00;5032950;28;20792;-77
2021/12/11 10:05:35;;;;;;;19.03;5.77;;;;;;;-143.84;85.67;44685.38;5030497;28;20447;-77
2021/12/11 10:08:26;;;;;;;19.40;4.60;;;;;;;-143.84;86.14;44578.78;5042017;28;20841;-77
2021/12/11 10:10:56;;;;;;;18.00;4.73;;;;;;;-143.84;86.05;44620.66;5038694;28;20454;-77
2021/12/11 10:13:27;;;;;;;39.93;13.90;;;;;;;-143.84;86.64;44483.56;5032733;28;20922;-77
2021/12/11 10:15:55;;;;;;;32.40;8.40;;;;;;;-143.84;86.96;44331.28;5036693;28;20489;-76
2021/12/11 10:18:26;;;;;;;39.10;6.10;;;;;;;-143.84;87.56;44213.25;5031985;28;20447;-76
2021/12/11 10:20:58;;;;;;;23.57;6.30;;;;;;;-143.84;87.85;44180.88;5031213;28;20462;-77
2021/12/11 10:23:29;;;;;;;20.73;5.37;;;;;;;-143.84;87.72;44167.56;5034723;28;20503;-76
2021/12/11 10:25:57;;;;;;;12.83;4.30;;;;;;;-143.84;87.93;44159.94;5032491;28;20486;-76
2021/12/11 10:28:27;;;;;;;14.33;4.33;;;;;;;-143.84;88.11;44110.44;5039714;28;20492;-76
2021/12/11 10:30:59;;;;;;;26.13;5.20;;;;;;;-143.84;88.18;44066.66;5036166;28;20445;-76
2021/12/11 10:33:31;;;;;;;25.70;7.77;;;;;;;-143.84;88.74;43967.69;5031837;28;20954;-76
2021/12/11 10:36:05;;;;;;;16.60;4.70;;;;;;;-143.84;88.73;43960.06;5032305;28;20439;-76
2021/12/11 10:38:33;;;;;;;20.60;4.70;;;;;;;-143.84;88.67;44005.75;5034267;28;20971;-75
2021/12/11 10:41:05;;;;;;;17.70;4.47;;;;;;;-143.84;88.80;43982.91;5036278;28;20454;-77
2021/12/11 10:43:36;;;;;;;18.87;5.03;;;;;;;-143.84;88.84;43982.91;5029624;28;20452;-77
2021/12/11 10:46:06;;;;;;;33.07;5.33;;;;;;;-143.84;89.27;43872.50;5040485;28;20453;-76
2021/12/11 10:48:37;;;;;;;23.90;7.07;;;;;;;-143.84;89.18;43897.25;5033199;28;20945;-76
2021/12/11 10:51:08;;;;;;;19.87;5.80;;;;;;;-143.84;89.75;43836.34;5035888;28;20463;-76
2021/12/11 10:53:37;;;;;;;20.70;5.67;;;;;;;-143.84;89.90;43830.63;5030530;28;20446;-77
2021/12/11 10:56:08;;;;;;;17.10;5.90;;;;;;;-143.84;90.16;43817.31;5032871;28;20467;-76
2021/12/11 10:58:38;;;;;;;19.30;5.40;;;;;;;-143.84;90.93;43826.81;5034856;28;21023;-76
2021/12/11 11:01:09;;;;;;;16.87;5.03;;;;;;;-143.84;91.50;43845.84;5029161;28;20468;-76
2021/12/11 11:03:42;;;;;;;15.30;5.13;;;;;;;-143.84;91.92;43813.50;5037869;28;20450;-78
2021/12/11 11:06:09;;;;;;;25.90;5.70;;;;;;;-143.84;91.70;43803.97;5031467;28;20468;-78
2021/12/11 11:08:37;;;;;;;20.83;4.57;;;;;;;-143.84;90.63;43828.72;5033633;28;20876;-78
2021/12/11 11:11:08;;;;;;;14.20;4.07;;;;;;;-143.84;90.69;43843.94;5037004;28;20442;-79
2021/12/11 11:13:36;;;;;;;11.10;4.17;;;;;;;-143.84;89.83;43866.78;5034894;28;20449;-79
2021/12/11 11:16:03;;;;;;;14.83;4.17;;;;;;;-143.84;90.24;43823.00;5037466;28;20497;-79
2021/12/11 11:18:31;;;;;;;20.33;4.43;;;;;;;-143.84;91.28;43779.22;5034449;28;20448;-78
2021/12/11 11:21:07;;;;;;;27.47;5.13;;;;;;;-143.84;92.37;43830.63;5042506;28;20438;-79
2021/12/11 11:23:34;;;;;;;31.93;6.70;;;;;;;-143.84;92.93;43868.69;5041860;28;20453;-77
2021/12/11 11:26:07;;;;;;;16.57;5.20;;;;;;;-143.84;92.56;43872.50;5036666;28;20457;-77
2021/12/11 11:28:35;;;;;;;16.53;5.00;;;;;;;-143.84;91.83;43840.13;5029253;28;20454;-77
2021/12/11 11:31:06;;;;;;;18.47;5.33;;;;;;;-143.84;91.37;43851.56;5033151;28;20455;-76
2021/12/11 11:33:35;;;;;;;19.70;5.63;;;;;;;-143.84;91.09;43802.06;5037723;28;20807;-77
2021/12/11 11:36:07;;;;;;;24.13;7.50;;;;;;;-143.84;90.62;43790.66;5029147;28;20449;-76
2021/12/11 11:38:37;;;;;;;32.77;10.27;;;;;;;-143.84;91.22;43823.00;5026536;28;20457;-75
2021/12/11 11:41:09;;;;;;;23.37;5.23;;;;;;;-143.84;91.56;43803.97;5036742;28;20520;-76
2021/12/11 11:43:38;;;;;;;24.83;7.47;;;;;;;-143.84;92.04;43843.94;5030526;28;20503;-74
2021/12/11 11:46:05;;;;;;;29.80;5.57;;;;;;;-143.84;92.24;43845.84;5035528;28;20573;-74